sensor_id;sensor_type;location;lat;lon;timestamp;P1;durP1;ratioP1;P2;durP2;ratioP2
12770;SDS011;6449;47.666;9.160;2022-07-26T00:00:01;3.28;;;2.70;;
12770;SDS011;6449;47.666;9.160;2022-07-26T00:04:56;4.97;;;3.45;;
12770;SDS011;6449;47.666;9.160;2022-07-26T00:09:51;4.05;;;3.17;;
12770;SDS011;6449;47.666;9.160;2022-07-26T00:14:44;3.53;;;3.22;;
12770;SDS011;6449;47.666;9.160;2022-07-26T00:19:38;3.55;;;3.25;;
12770;SDS011;6449;47.666;9.160;2022-07-26T00:24:31;3.38;;;3.08;;
12770;SDS011;6449;47.666;9.160;2022-07-26T00:29:27;6.35;;;3.40;;
12770;SDS011;6449;47.666;9.160;2022-07-26T00:34:20;3.58;;;3.25;;
12770;SDS011;6449;47.666;9.160;2022-07-26T00:39:14;3.10;;;2.88;;
12770;SDS011;6449;47.666;9.160;2022-07-26T00:44:07;2.95;;;2.65;;
12770;SDS011;6449;47.666;9.160;2022-07-26T00:49:02;2.40;;;2.20;;
12770;SDS011;6449;47.666;9.160;2022-07-26T00:53:56;3.22;;;2.88;;
12770;SDS011;6449;47.666;9.160;2022-07-26T00:58:50;2.95;;;2.55;;
12770;SDS011;6449;47.666;9.160;2022-07-26T01:03:51;3.88;;;2.42;;
12770;SDS011;6449;47.666;9.160;2022-07-26T01:09:22;2.60;;;2.40;;
12770;SDS011;6449;47.666;9.160;2022-07-26T01:14:23;2.85;;;2.33;;
12770;SDS011;6449;47.666;9.160;2022-07-26T01:19:19;2.33;;;2.13;;
12770;SDS011;6449;47.666;9.160;2022-07-26T01:24:14;3.00;;;2.45;;
12770;SDS011;6449;47.666;9.160;2022-07-26T01:29:18;2.80;;;2.53;;
12770;SDS011;6449;47.666;9.160;2022-07-26T01:34:11;2.85;;;2.50;;
12770;SDS011;6449;47.666;9.160;2022-07-26T01:44:29;3.13;;;2.47;;
12770;SDS011;6449;47.666;9.160;2022-07-26T01:49:23;1.85;;;1.75;;
12770;SDS011;6449;47.666;9.160;2022-07-26T01:54:20;4.57;;;2.30;;
12770;SDS011;6449;47.666;9.160;2022-07-26T01:59:27;3.50;;;2.67;;
12770;SDS011;6449;47.666;9.160;2022-07-26T02:04:20;3.78;;;2.10;;
12770;SDS011;6449;47.666;9.160;2022-07-26T02:09:36;2.28;;;2.08;;
12770;SDS011;6449;47.666;9.160;2022-07-26T02:14:38;2.40;;;2.20;;
12770;SDS011;6449;47.666;9.160;2022-07-26T02:19:32;2.67;;;2.20;;
12770;SDS011;6449;47.666;9.160;2022-07-26T02:24:25;2.30;;;2.10;;
12770;SDS011;6449;47.666;9.160;2022-07-26T02:29:31;2.53;;;1.90;;
12770;SDS011;6449;47.666;9.160;2022-07-26T02:34:24;2.13;;;1.92;;
12770;SDS011;6449;47.666;9.160;2022-07-26T02:39:24;2.92;;;2.30;;
12770;SDS011;6449;47.666;9.160;2022-07-26T02:44:19;1.90;;;1.80;;
12770;SDS011;6449;47.666;9.160;2022-07-26T02:49:18;2.85;;;2.10;;
12770;SDS011;6449;47.666;9.160;2022-07-26T02:54:13;2.80;;;2.53;;
12770;SDS011;6449;47.666;9.160;2022-07-26T02:59:07;3.10;;;2.58;;
12770;SDS011;6449;47.666;9.160;2022-07-26T03:04:00;3.53;;;2.35;;
12770;SDS011;6449;47.666;9.160;2022-07-26T03:08:55;2.25;;;2.08;;
12770;SDS011;6449;47.666;9.160;2022-07-26T03:13:48;2.55;;;2.28;;
12770;SDS011;6449;47.666;9.160;2022-07-26T03:18:42;2.47;;;2.28;;
12770;SDS011;6449;47.666;9.160;2022-07-26T03:23:36;3.85;;;2.50;;
12770;SDS011;6449;47.666;9.160;2022-07-26T03:28:31;3.00;;;2.53;;
12770;SDS011;6449;47.666;9.160;2022-07-26T03:33:25;3.67;;;2.67;;
12770;SDS011;6449;47.666;9.160;2022-07-26T03:38:18;3.08;;;2.70;;
12770;SDS011;6449;47.666;9.160;2022-07-26T03:43:11;3.13;;;2.50;;
12770;SDS011;6449;47.666;9.160;2022-07-26T03:48:07;2.80;;;2.50;;
12770;SDS011;6449;47.666;9.160;2022-07-26T03:53:02;2.58;;;2.28;;
12770;SDS011;6449;47.666;9.160;2022-07-26T03:57:58;2.75;;;2.40;;
12770;SDS011;6449;47.666;9.160;2022-07-26T04:02:51;2.53;;;2.22;;
12770;SDS011;6449;47.666;9.160;2022-07-26T04:07:46;3.08;;;2.55;;
12770;SDS011;6449;47.666;9.160;2022-07-26T04:12:43;2.47;;;2.28;;
12770;SDS011;6449;47.666;9.160;2022-07-26T04:17:37;3.03;;;2.03;;
12770;SDS011;6449;47.666;9.160;2022-07-26T04:22:31;3.20;;;2.40;;
12770;SDS011;6449;47.666;9.160;2022-07-26T04:27:27;2.60;;;2.20;;
12770;SDS011;6449;47.666;9.160;2022-07-26T04:32:21;2.72;;;2.30;;
12770;SDS011;6449;47.666;9.160;2022-07-26T04:37:14;2.58;;;2.33;;
12770;SDS011;6449;47.666;9.160;2022-07-26T04:42:09;2.53;;;1.90;;
12770;SDS011;6449;47.666;9.160;2022-07-26T04:47:03;2.47;;;1.98;;
12770;SDS011;6449;47.666;9.160;2022-07-26T04:51:57;1.42;;;1.33;;
12770;SDS011;6449;47.666;9.160;2022-07-26T04:56:50;1.65;;;1.20;;
12770;SDS011;6449;47.666;9.160;2022-07-26T05:01:44;1.65;;;1.55;;
12770;SDS011;6449;47.666;9.160;2022-07-26T05:06:39;1.45;;;1.35;;
12770;SDS011;6449;47.666;9.160;2022-07-26T05:11:33;1.27;;;1.17;;
12770;SDS011;6449;47.666;9.160;2022-07-26T05:16:27;1.13;;;1.02;;
12770;SDS011;6449;47.666;9.160;2022-07-26T05:21:21;1.42;;;1.30;;
12770;SDS011;6449;47.666;9.160;2022-07-26T05:26:16;2.03;;;1.55;;
12770;SDS011;6449;47.666;9.160;2022-07-26T05:31:09;1.10;;;1.08;;
12770;SDS011;6449;47.666;9.160;2022-07-26T05:36:03;2.45;;;1.05;;
12770;SDS011;6449;47.666;9.160;2022-07-26T05:40:57;1.20;;;1.10;;
12770;SDS011;6449;47.666;9.160;2022-07-26T05:45:52;1.30;;;1.00;;
12770;SDS011;6449;47.666;9.160;2022-07-26T05:50:47;3.15;;;1.30;;
12770;SDS011;6449;47.666;9.160;2022-07-26T05:55:41;1.85;;;1.00;;
12770;SDS011;6449;47.666;9.160;2022-07-26T06:00:34;1.65;;;1.30;;
12770;SDS011;6449;47.666;9.160;2022-07-26T06:05:29;1.23;;;1.10;;
12770;SDS011;6449;47.666;9.160;2022-07-26T06:10:22;1.15;;;1.05;;
12770;SDS011;6449;47.666;9.160;2022-07-26T06:15:16;1.48;;;1.38;;
12770;SDS011;6449;47.666;9.160;2022-07-26T06:20:10;1.50;;;1.40;;
12770;SDS011;6449;47.666;9.160;2022-07-26T06:25:05;1.52;;;1.42;;
12770;SDS011;6449;47.666;9.160;2022-07-26T06:29:59;2.28;;;1.50;;
12770;SDS011;6449;47.666;9.160;2022-07-26T06:34:53;1.80;;;1.70;;
12770;SDS011;6449;47.666;9.160;2022-07-26T06:39:46;1.85;;;1.50;;
12770;SDS011;6449;47.666;9.160;2022-07-26T06:44:41;1.70;;;1.60;;
12770;SDS011;6449;47.666;9.160;2022-07-26T06:49:34;4.93;;;1.83;;
12770;SDS011;6449;47.666;9.160;2022-07-26T06:54:28;2.10;;;1.70;;
12770;SDS011;6449;47.666;9.160;2022-07-26T06:59:21;1.77;;;1.60;;
12770;SDS011;6449;47.666;9.160;2022-07-26T07:04:16;1.63;;;1.52;;
12770;SDS011;6449;47.666;9.160;2022-07-26T07:09:10;2.75;;;1.70;;
12770;SDS011;6449;47.666;9.160;2022-07-26T07:14:05;2.80;;;1.50;;
12770;SDS011;6449;47.666;9.160;2022-07-26T07:19:00;1.83;;;1.70;;
12770;SDS011;6449;47.666;9.160;2022-07-26T07:23:54;1.58;;;1.48;;
12770;SDS011;6449;47.666;9.160;2022-07-26T07:28:48;1.85;;;1.55;;
12770;SDS011;6449;47.666;9.160;2022-07-26T07:33:44;2.50;;;1.65;;
12770;SDS011;6449;47.666;9.160;2022-07-26T07:38:44;2.28;;;1.40;;
12770;SDS011;6449;47.666;9.160;2022-07-26T07:43:38;1.17;;;1.08;;
12770;SDS011;6449;47.666;9.160;2022-07-26T07:48:32;1.50;;;1.20;;
12770;SDS011;6449;47.666;9.160;2022-07-26T07:53:25;1.13;;;1.00;;
12770;SDS011;6449;47.666;9.160;2022-07-26T07:58:21;1.60;;;1.50;;
12770;SDS011;6449;47.666;9.160;2022-07-26T08:03:19;1.42;;;1.33;;
12770;SDS011;6449;47.666;9.160;2022-07-26T08:08:13;1.40;;;1.30;;
12770;SDS011;6449;47.666;9.160;2022-07-26T08:13:06;1.30;;;1.20;;
12770;SDS011;6449;47.666;9.160;2022-07-26T08:18:01;1.98;;;1.38;;
12770;SDS011;6449;47.666;9.160;2022-07-26T08:22:59;1.30;;;1.20;;
12770;SDS011;6449;47.666;9.160;2022-07-26T08:27:55;2.25;;;1.30;;
12770;SDS011;6449;47.666;9.160;2022-07-26T08:32:56;1.48;;;1.15;;
12770;SDS011;6449;47.666;9.160;2022-07-26T08:37:50;1.25;;;1.15;;
12770;SDS011;6449;47.666;9.160;2022-07-26T08:42:48;1.77;;;1.48;;
12770;SDS011;6449;47.666;9.160;2022-07-26T08:47:43;1.25;;;1.15;;
12770;SDS011;6449;47.666;9.160;2022-07-26T08:52:58;1.20;;;1.02;;
12770;SDS011;6449;47.666;9.160;2022-07-26T08:57:55;2.58;;;1.45;;
12770;SDS011;6449;47.666;9.160;2022-07-26T09:02:50;1.40;;;1.30;;
12770;SDS011;6449;47.666;9.160;2022-07-26T09:07:44;1.60;;;1.40;;
12770;SDS011;6449;47.666;9.160;2022-07-26T09:12:38;1.27;;;1.17;;
12770;SDS011;6449;47.666;9.160;2022-07-26T09:17:38;1.38;;;1.27;;
12770;SDS011;6449;47.666;9.160;2022-07-26T09:22:35;2.97;;;1.40;;
12770;SDS011;6449;47.666;9.160;2022-07-26T09:27:34;1.40;;;1.30;;
12770;SDS011;6449;47.666;9.160;2022-07-26T09:32:27;1.77;;;1.40;;
12770;SDS011;6449;47.666;9.160;2022-07-26T09:37:35;1.67;;;1.58;;
12770;SDS011;6449;47.666;9.160;2022-07-26T09:42:30;1.42;;;1.33;;
12770;SDS011;6449;47.666;9.160;2022-07-26T09:47:33;1.30;;;1.27;;
12770;SDS011;6449;47.666;9.160;2022-07-26T09:52:28;1.40;;;1.30;;
12770;SDS011;6449;47.666;9.160;2022-07-26T09:57:23;1.52;;;1.42;;
12770;SDS011;6449;47.666;9.160;2022-07-26T10:02:16;1.73;;;1.63;;
12770;SDS011;6449;47.666;9.160;2022-07-26T10:07:09;2.03;;;1.48;;
12770;SDS011;6449;47.666;9.160;2022-07-26T10:12:04;1.52;;;1.40;;
12770;SDS011;6449;47.666;9.160;2022-07-26T10:22:43;1.35;;;1.25;;
12770;SDS011;6449;47.666;9.160;2022-07-26T10:27:42;2.25;;;1.50;;
12770;SDS011;6449;47.666;9.160;2022-07-26T10:32:38;1.35;;;1.25;;
12770;SDS011;6449;47.666;9.160;2022-07-26T10:37:34;1.35;;;1.25;;
12770;SDS011;6449;47.666;9.160;2022-07-26T10:42:41;2.08;;;1.50;;
12770;SDS011;6449;47.666;9.160;2022-07-26T10:47:36;1.58;;;1.40;;
12770;SDS011;6449;47.666;9.160;2022-07-26T10:52:57;1.40;;;1.30;;
12770;SDS011;6449;47.666;9.160;2022-07-26T10:57:52;1.50;;;1.40;;
12770;SDS011;6449;47.666;9.160;2022-07-26T11:02:51;1.67;;;1.58;;
12770;SDS011;6449;47.666;9.160;2022-07-26T11:07:55;1.98;;;1.60;;
12770;SDS011;6449;47.666;9.160;2022-07-26T11:18:13;1.42;;;1.30;;
12770;SDS011;6449;47.666;9.160;2022-07-26T11:23:22;1.70;;;1.60;;
12770;SDS011;6449;47.666;9.160;2022-07-26T11:28:19;2.10;;;1.60;;
12770;SDS011;6449;47.666;9.160;2022-07-26T11:33:13;1.55;;;1.45;;
12770;SDS011;6449;47.666;9.160;2022-07-26T11:38:07;2.13;;;1.70;;
12770;SDS011;6449;47.666;9.160;2022-07-26T11:43:04;1.67;;;1.40;;
12770;SDS011;6449;47.666;9.160;2022-07-26T11:47:57;1.95;;;1.67;;
12770;SDS011;6449;47.666;9.160;2022-07-26T11:52:51;1.65;;;1.55;;
12770;SDS011;6449;47.666;9.160;2022-07-26T11:57:48;1.65;;;1.55;;
12770;SDS011;6449;47.666;9.160;2022-07-26T12:02:44;1.70;;;1.60;;
12770;SDS011;6449;47.666;9.160;2022-07-26T12:07:53;2.05;;;1.45;;
12770;SDS011;6449;47.666;9.160;2022-07-26T12:12:48;3.30;;;1.80;;
12770;SDS011;6449;47.666;9.160;2022-07-26T12:17:59;1.63;;;1.50;;
12770;SDS011;6449;47.666;9.160;2022-07-26T12:22:56;1.77;;;1.67;;
12770;SDS011;6449;47.666;9.160;2022-07-26T12:27:56;1.63;;;1.52;;
12770;SDS011;6449;47.666;9.160;2022-07-26T12:32:50;2.70;;;1.70;;
12770;SDS011;6449;47.666;9.160;2022-07-26T12:37:50;1.60;;;1.50;;
12770;SDS011;6449;47.666;9.160;2022-07-26T12:42:52;2.03;;;1.55;;
12770;SDS011;6449;47.666;9.160;2022-07-26T12:47:53;1.25;;;1.13;;
12770;SDS011;6449;47.666;9.160;2022-07-26T12:52:59;1.70;;;1.60;;
12770;SDS011;6449;47.666;9.160;2022-07-26T12:57:55;1.70;;;1.60;;
12770;SDS011;6449;47.666;9.160;2022-07-26T13:02:50;1.70;;;1.60;;
12770;SDS011;6449;47.666;9.160;2022-07-26T13:07:45;1.90;;;1.48;;
12770;SDS011;6449;47.666;9.160;2022-07-26T13:12:40;1.58;;;1.48;;
12770;SDS011;6449;47.666;9.160;2022-07-26T13:17:34;1.58;;;1.45;;
12770;SDS011;6449;47.666;9.160;2022-07-26T13:22:28;2.28;;;1.80;;
12770;SDS011;6449;47.666;9.160;2022-07-26T13:27:22;1.42;;;1.33;;
12770;SDS011;6449;47.666;9.160;2022-07-26T13:32:27;1.30;;;1.17;;
12770;SDS011;6449;47.666;9.160;2022-07-26T13:37:22;3.05;;;1.40;;
12770;SDS011;6449;47.666;9.160;2022-07-26T13:42:16;1.70;;;1.42;;
12770;SDS011;6449;47.666;9.160;2022-07-26T13:47:13;1.58;;;1.48;;
12770;SDS011;6449;47.666;9.160;2022-07-26T13:52:09;1.77;;;1.50;;
12770;SDS011;6449;47.666;9.160;2022-07-26T13:57:07;1.38;;;1.27;;
12770;SDS011;6449;47.666;9.160;2022-07-26T14:02:02;1.13;;;1.02;;
12770;SDS011;6449;47.666;9.160;2022-07-26T14:06:56;1.33;;;1.23;;
12770;SDS011;6449;47.666;9.160;2022-07-26T14:11:55;1.80;;;1.50;;
12770;SDS011;6449;47.666;9.160;2022-07-26T14:16:49;1.60;;;1.50;;
12770;SDS011;6449;47.666;9.160;2022-07-26T14:21:43;2.33;;;1.65;;
12770;SDS011;6449;47.666;9.160;2022-07-26T14:26:50;1.65;;;1.50;;
12770;SDS011;6449;47.666;9.160;2022-07-26T14:31:51;1.52;;;1.42;;
12770;SDS011;6449;47.666;9.160;2022-07-26T14:36:48;1.48;;;1.38;;
12770;SDS011;6449;47.666;9.160;2022-07-26T14:42:13;1.60;;;1.50;;
12770;SDS011;6449;47.666;9.160;2022-07-26T14:47:08;3.03;;;2.05;;
12770;SDS011;6449;47.666;9.160;2022-07-26T14:52:02;1.70;;;1.60;;
12770;SDS011;6449;47.666;9.160;2022-07-26T14:56:56;1.65;;;1.55;;
12770;SDS011;6449;47.666;9.160;2022-07-26T15:01:50;1.65;;;1.55;;
12770;SDS011;6449;47.666;9.160;2022-07-26T15:06:46;1.70;;;1.60;;
12770;SDS011;6449;47.666;9.160;2022-07-26T15:11:39;1.63;;;1.52;;
12770;SDS011;6449;47.666;9.160;2022-07-26T15:16:33;1.40;;;1.30;;
12770;SDS011;6449;47.666;9.160;2022-07-26T15:21:27;2.00;;;1.60;;
12770;SDS011;6449;47.666;9.160;2022-07-26T15:26:22;1.70;;;1.40;;
12770;SDS011;6449;47.666;9.160;2022-07-26T15:31:15;1.75;;;1.65;;
12770;SDS011;6449;47.666;9.160;2022-07-26T15:36:09;2.03;;;1.60;;
12770;SDS011;6449;47.666;9.160;2022-07-26T15:41:02;1.50;;;1.40;;
12770;SDS011;6449;47.666;9.160;2022-07-26T15:45:57;2.13;;;1.58;;
12770;SDS011;6449;47.666;9.160;2022-07-26T15:50:52;1.80;;;1.58;;
12770;SDS011;6449;47.666;9.160;2022-07-26T15:55:46;1.55;;;1.45;;
12770;SDS011;6449;47.666;9.160;2022-07-26T16:00:40;1.67;;;1.58;;
12770;SDS011;6449;47.666;9.160;2022-07-26T16:05:35;1.88;;;1.73;;
12770;SDS011;6449;47.666;9.160;2022-07-26T16:10:29;1.67;;;1.58;;
12770;SDS011;6449;47.666;9.160;2022-07-26T16:15:23;1.50;;;1.40;;
12770;SDS011;6449;47.666;9.160;2022-07-26T16:20:17;1.30;;;1.25;;
12770;SDS011;6449;47.666;9.160;2022-07-26T16:25:12;1.65;;;1.45;;
12770;SDS011;6449;47.666;9.160;2022-07-26T16:30:06;1.42;;;1.25;;
12770;SDS011;6449;47.666;9.160;2022-07-26T16:35:01;1.70;;;1.23;;
12770;SDS011;6449;47.666;9.160;2022-07-26T16:39:56;1.65;;;1.52;;
12770;SDS011;6449;47.666;9.160;2022-07-26T16:44:50;1.40;;;1.30;;
12770;SDS011;6449;47.666;9.160;2022-07-26T16:49:44;2.20;;;1.45;;
12770;SDS011;6449;47.666;9.160;2022-07-26T16:54:38;1.65;;;1.40;;
12770;SDS011;6449;47.666;9.160;2022-07-26T16:59:33;2.42;;;1.58;;
12770;SDS011;6449;47.666;9.160;2022-07-26T17:04:29;1.92;;;1.48;;
12770;SDS011;6449;47.666;9.160;2022-07-26T17:09:22;2.30;;;1.90;;
12770;SDS011;6449;47.666;9.160;2022-07-26T17:14:16;2.45;;;1.40;;
12770;SDS011;6449;47.666;9.160;2022-07-26T17:19:10;2.70;;;1.80;;
12770;SDS011;6449;47.666;9.160;2022-07-26T17:24:06;1.77;;;1.67;;
12770;SDS011;6449;47.666;9.160;2022-07-26T17:29:00;1.65;;;1.50;;
12770;SDS011;6449;47.666;9.160;2022-07-26T17:33:58;2.33;;;1.98;;
12770;SDS011;6449;47.666;9.160;2022-07-26T17:38:52;2.28;;;1.80;;
12770;SDS011;6449;47.666;9.160;2022-07-26T17:43:48;2.38;;;1.88;;
12770;SDS011;6449;47.666;9.160;2022-07-26T17:48:44;1.70;;;1.60;;
12770;SDS011;6449;47.666;9.160;2022-07-26T17:53:37;3.30;;;1.80;;
12770;SDS011;6449;47.666;9.160;2022-07-26T17:58:33;4.15;;;1.98;;
12770;SDS011;6449;47.666;9.160;2022-07-26T18:03:29;2.22;;;1.80;;
12770;SDS011;6449;47.666;9.160;2022-07-26T18:08:23;2.40;;;2.20;;
12770;SDS011;6449;47.666;9.160;2022-07-26T18:13:18;4.38;;;2.20;;
12770;SDS011;6449;47.666;9.160;2022-07-26T18:18:12;2.17;;;1.80;;
12770;SDS011;6449;47.666;9.160;2022-07-26T18:23:07;2.97;;;2.35;;
12770;SDS011;6449;47.666;9.160;2022-07-26T18:28:01;3.83;;;2.85;;
12770;SDS011;6449;47.666;9.160;2022-07-26T18:32:57;5.35;;;3.13;;
12770;SDS011;6449;47.666;9.160;2022-07-26T18:37:51;6.18;;;3.95;;
12770;SDS011;6449;47.666;9.160;2022-07-26T18:42:47;5.38;;;3.10;;
12770;SDS011;6449;47.666;9.160;2022-07-26T18:47:41;2.38;;;1.88;;
12770;SDS011;6449;47.666;9.160;2022-07-26T18:52:37;2.10;;;1.88;;
12770;SDS011;6449;47.666;9.160;2022-07-26T18:57:31;1.73;;;1.63;;
12770;SDS011;6449;47.666;9.160;2022-07-26T19:02:27;1.80;;;1.67;;
12770;SDS011;6449;47.666;9.160;2022-07-26T19:07:21;5.70;;;4.43;;
12770;SDS011;6449;47.666;9.160;2022-07-26T19:12:14;4.68;;;3.70;;
12770;SDS011;6449;47.666;9.160;2022-07-26T19:17:08;3.25;;;2.90;;
12770;SDS011;6449;47.666;9.160;2022-07-26T19:22:03;4.15;;;2.53;;
12770;SDS011;6449;47.666;9.160;2022-07-26T19:26:57;2.65;;;1.52;;
12770;SDS011;6449;47.666;9.160;2022-07-26T19:31:51;1.50;;;1.30;;
12770;SDS011;6449;47.666;9.160;2022-07-26T19:36:45;1.25;;;1.15;;
12770;SDS011;6449;47.666;9.160;2022-07-26T19:41:42;1.73;;;1.52;;
12770;SDS011;6449;47.666;9.160;2022-07-26T19:46:38;1.30;;;1.20;;
12770;SDS011;6449;47.666;9.160;2022-07-26T19:51:33;1.20;;;1.08;;
12770;SDS011;6449;47.666;9.160;2022-07-26T19:56:35;1.30;;;0.98;;
12770;SDS011;6449;47.666;9.160;2022-07-26T20:01:31;1.40;;;1.30;;
12770;SDS011;6449;47.666;9.160;2022-07-26T20:06:25;2.13;;;0.95;;
12770;SDS011;6449;47.666;9.160;2022-07-26T20:11:18;0.80;;;0.80;;
12770;SDS011;6449;47.666;9.160;2022-07-26T20:16:13;1.10;;;1.00;;
12770;SDS011;6449;47.666;9.160;2022-07-26T20:21:08;1.10;;;1.05;;
12770;SDS011;6449;47.666;9.160;2022-07-26T20:26:01;1.20;;;1.10;;
12770;SDS011;6449;47.666;9.160;2022-07-26T20:30:55;1.00;;;0.90;;
12770;SDS011;6449;47.666;9.160;2022-07-26T20:35:49;0.98;;;0.95;;
12770;SDS011;6449;47.666;9.160;2022-07-26T20:40:46;1.25;;;0.88;;
12770;SDS011;6449;47.666;9.160;2022-07-26T20:45:40;1.08;;;0.68;;
12770;SDS011;6449;47.666;9.160;2022-07-26T20:50:34;1.23;;;0.90;;
12770;SDS011;6449;47.666;9.160;2022-07-26T20:55:28;1.33;;;1.10;;
12770;SDS011;6449;47.666;9.160;2022-07-26T21:00:25;3.20;;;1.10;;
12770;SDS011;6449;47.666;9.160;2022-07-26T21:05:25;0.77;;;0.77;;
12770;SDS011;6449;47.666;9.160;2022-07-26T21:10:23;1.85;;;1.00;;
12770;SDS011;6449;47.666;9.160;2022-07-26T21:15:16;2.20;;;0.95;;
12770;SDS011;6449;47.666;9.160;2022-07-26T21:20:11;0.93;;;0.90;;
12770;SDS011;6449;47.666;9.160;2022-07-26T21:25:05;0.75;;;0.70;;
12770;SDS011;6449;47.666;9.160;2022-07-26T21:29:59;1.27;;;0.80;;
12770;SDS011;6449;47.666;9.160;2022-07-26T21:34:54;1.75;;;0.80;;
12770;SDS011;6449;47.666;9.160;2022-07-26T21:39:48;2.38;;;1.00;;
12770;SDS011;6449;47.666;9.160;2022-07-26T21:44:42;1.38;;;0.85;;
12770;SDS011;6449;47.666;9.160;2022-07-26T21:49:35;1.73;;;0.88;;
12770;SDS011;6449;47.666;9.160;2022-07-26T21:54:29;1.33;;;0.80;;
12770;SDS011;6449;47.666;9.160;2022-07-26T21:59:24;0.70;;;0.70;;
12770;SDS011;6449;47.666;9.160;2022-07-26T22:04:17;0.93;;;0.90;;
12770;SDS011;6449;47.666;9.160;2022-07-26T22:09:12;0.90;;;0.82;;
12770;SDS011;6449;47.666;9.160;2022-07-26T22:14:05;1.33;;;0.93;;
12770;SDS011;6449;47.666;9.160;2022-07-26T22:19:00;1.27;;;1.10;;
12770;SDS011;6449;47.666;9.160;2022-07-26T22:23:54;0.95;;;0.95;;
12770;SDS011;6449;47.666;9.160;2022-07-26T22:28:48;1.88;;;1.20;;
12770;SDS011;6449;47.666;9.160;2022-07-26T22:33:41;1.65;;;0.90;;
12770;SDS011;6449;47.666;9.160;2022-07-26T22:38:36;0.90;;;0.90;;
12770;SDS011;6449;47.666;9.160;2022-07-26T22:43:29;1.77;;;1.05;;
12770;SDS011;6449;47.666;9.160;2022-07-26T22:48:23;1.15;;;1.00;;
12770;SDS011;6449;47.666;9.160;2022-07-26T22:53:16;1.00;;;0.90;;
12770;SDS011;6449;47.666;9.160;2022-07-26T22:58:11;0.90;;;0.80;;
12770;SDS011;6449;47.666;9.160;2022-07-26T23:03:04;1.15;;;1.00;;
12770;SDS011;6449;47.666;9.160;2022-07-26T23:08:10;1.02;;;0.95;;
12770;SDS011;6449;47.666;9.160;2022-07-26T23:13:25;1.00;;;1.00;;
12770;SDS011;6449;47.666;9.160;2022-07-26T23:18:18;2.00;;;1.20;;
12770;SDS011;6449;47.666;9.160;2022-07-26T23:23:11;1.13;;;1.00;;
12770;SDS011;6449;47.666;9.160;2022-07-26T23:28:05;0.90;;;0.90;;
12770;SDS011;6449;47.666;9.160;2022-07-26T23:32:59;0.88;;;0.88;;
12770;SDS011;6449;47.666;9.160;2022-07-26T23:37:53;1.33;;;0.90;;
12770;SDS011;6449;47.666;9.160;2022-07-26T23:42:46;1.30;;;0.63;;
12770;SDS011;6449;47.666;9.160;2022-07-26T23:47:42;1.88;;;1.00;;
12770;SDS011;6449;47.666;9.160;2022-07-26T23:52:37;1.10;;;1.10;;
12770;SDS011;6449;47.666;9.160;2022-07-26T23:57:30;1.67;;;0.82;;
